Time;durP1;ratioP1;P1;durP2;ratioP2;P2;SDS_P1;SDS_P2;PMS_P1;PMS_P2;Temp;Humidity;BMP_temperature;BMP_pressure;BME280_temperature;BME280_humidity;BME280_pressure;Samples;Min_cycle;Max_cycle;Signal;HPM_P1;HPM_P2
2023/06/02 13:04:37;;;;;;;;;13.00;11.50;;;;;23.14;35.58;101349.72;5589647;23;45920;-55
2023/06/02 13:07:04;;;;;;;;;13.50;12.75;;;;;23.13;36.32;101348.84;4953514;28;45417;-54
2023/06/02 13:09:29;;;;;;;;;11.50;10.50;;;;;23.14;35.81;101347.06;4956187;28;45504;-56
2023/06/02 13:11:55;;;;;;;;;10.50;9.25;;;;;23.14;36.07;101339.16;4955423;28;67007;-56
2023/06/02 13:14:20;;;;;;;;;11.75;10.00;;;;;23.14;35.64;101345.28;4956244;28;45712;-47
2023/06/02 13:16:46;;;;;;;;;10.50;9.50;;;;;23.15;36.17;101340.84;4954132;28;49037;-56
2023/06/02 13:19:11;;;;;;;;;12.25;10.75;;;;;23.14;35.64;101339.16;4955061;28;45416;-55
2023/06/02 13:21:37;;;;;;;;;11.00;11.00;;;;;23.16;35.97;101337.25;4955275;28;45503;-56
2023/06/02 13:24:02;;;;;;;;;11.25;10.25;;;;;23.19;35.76;101336.22;4955468;28;45435;-55
2023/06/02 13:26:27;;;;;;;;;12.50;11.25;;;;;23.17;35.76;101329.22;4955513;28;45424;-56
2023/06/02 13:28:53;;;;;;;;;14.75;12.00;;;;;23.15;36.02;101328.47;4938224;28;45533;-56
2023/06/02 13:31:18;;;;;;;;;11.75;9.50;;;;;23.16;35.65;101316.09;4955117;28;46508;-57
2023/06/02 13:33:43;;;;;;;;;11.00;10.00;;;;;23.17;35.59;101326.59;4955428;28;45536;-56
2023/06/02 13:36:09;;;;;;;;;13.00;10.50;;;;;23.19;35.91;101321.22;4958276;28;51976;-56
2023/06/02 13:38:34;;;;;;;;;11.25;11.25;;;;;23.20;35.70;101319.47;4958047;28;45493;-56
2023/06/02 13:41:00;;;;;;;;;11.00;11.00;;;;;23.20;35.43;101312.34;4958569;28;45743;-57
2023/06/02 13:43:25;;;;;;;;;12.75;11.00;;;;;23.22;35.58;101309.63;4958597;28;45488;-56
2023/06/02 13:45:50;;;;;;;;;11.00;10.00;;;;;23.22;35.57;101306.97;4958751;28;53314;-57
2023/06/02 13:48:16;;;;;;;;;12.33;11.00;;;;;23.22;35.86;101305.19;4959073;28;55560;-57
2023/06/02 13:50:41;;;;;;;;;14.75;11.25;;;;;23.22;35.43;101302.56;4958477;28;49772;-56
2023/06/02 13:53:07;;;;;;;;;15.00;11.00;;;;;23.23;36.13;101312.19;4958897;28;50323;-57
2023/06/02 13:55:33;;;;;;;;;13.00;12.00;;;;;23.23;35.49;101298.97;4959004;28;45659;-57
2023/06/02 13:57:58;;;;;;;;;13.75;13.00;;;;;23.24;35.85;101299.81;4959102;28;45712;-57
2023/06/02 14:00:23;;;;;;;;;14.00;12.50;;;;;23.24;35.75;101295.38;4958811;28;55532;-57
2023/06/02 14:02:48;;;;;;;;;11.50;10.75;;;;;23.25;35.65;101294.44;4958976;28;45342;-60
2023/06/02 14:05:14;;;;;;;;;12.50;10.75;;;;;23.26;35.72;101301.41;4958948;28;45437;-57
2023/06/02 14:07:39;;;;;;;;;10.75;10.50;;;;;23.26;35.41;101295.28;4959278;28;45260;-57
2023/06/02 14:10:05;;;;;;;;;10.25;10.25;;;;;23.26;35.43;101290.00;4959043;28;45568;-57
2023/06/02 14:12:31;;;;;;;;;11.50;10.00;;;;;23.27;35.67;101296.97;4958735;28;45278;-56
2023/06/02 14:14:56;;;;;;;;;12.25;10.25;;;;;23.27;35.15;101291.69;4958254;28;45465;-57
2023/06/02 14:17:22;;;;;;;;;10.67;9.00;;;;;23.27;35.34;101287.25;4957972;28;49910;-56
2023/06/02 14:19:47;;;;;;;;;11.75;8.25;;;;;23.26;35.76;101290.00;4958603;28;45979;-57
2023/06/02 14:22:12;;;;;;;;;12.75;9.75;;;;;23.28;35.53;101288.09;4941205;28;45434;-57
2023/06/02 14:24:38;;;;;;;;;12.25;10.25;;;;;23.25;35.82;101281.22;4958931;28;45301;-56
2023/06/02 14:27:04;;;;;;;;;10.00;9.75;;;;;23.28;35.54;101282.81;4957687;28;45645;-56
2023/06/02 14:29:29;;;;;;;;;9.25;7.25;;;;;23.28;35.62;101288.94;4957686;28;45421;-55
2023/06/02 14:31:55;;;;;;;;;11.50;11.25;;;;;23.28;35.43;101274.88;4957785;28;48468;-56
2023/06/02 14:34:20;;;;;;;;;12.00;9.50;;;;;23.28;35.11;101273.06;4957599;28;45545;-56
2023/06/02 14:36:45;;;;;;;;;6.75;6.75;;;;;23.29;35.09;101273.94;4955286;28;45495;-56
2023/06/02 14:39:11;;;;;;;;;9.50;9.50;;;;;23.30;35.46;101268.56;4957226;28;45472;-55
2023/06/02 14:41:36;;;;;;;;;12.75;10.00;;;;;23.30;35.16;101265.06;4957721;28;45281;-56
2023/06/02 14:44:02;;;;;;;;;10.25;10.25;;;;;23.28;35.03;101262.50;4957618;28;45269;-56
2023/06/02 14:46:27;;;;;;;;;11.25;9.50;;;;;23.29;35.22;101269.50;4957221;28;45527;-56
2023/06/02 14:48:53;;;;;;;;;10.00;8.50;;;;;23.30;35.28;101267.72;4957431;28;45456;-56
2023/06/02 14:51:18;;;;;;;;;12.00;10.75;;;;;23.30;35.16;101265.06;4957564;28;45271;-56
2023/06/02 14:53:43;;;;;;;;;11.00;10.00;;;;;23.30;35.35;101254.50;4957763;28;45303;-56
2023/06/02 14:56:09;;;;;;;;;13.33;11.33;;;;;23.31;35.22;101250.91;4957451;28;48623;-56
2023/06/02 14:58:34;;;;;;;;;10.00;9.00;;;;;23.31;35.47;101258.84;4956824;28;46378;-55
2023/06/02 15:00:59;;;;;;;;;11.50;11.25;;;;;23.31;35.24;101245.63;4957400;28;45308;-55
2023/06/02 15:03:24;;;;;;;;;12.25;10.50;;;;;23.29;35.66;101250.16;4957596;28;45191;-57
2023/06/02 15:05:50;;;;;;;;;15.33;10.33;;;;;23.31;35.32;101257.03;4956816;28;54847;-55
2023/06/02 15:08:15;;;;;;;;;14.00;12.00;;;;;23.31;35.03;101256.19;4957394;28;46312;-55
2023/06/02 15:10:42;;;;;;;;;12.50;12.50;;;;;23.32;35.11;101255.22;4955519;28;45883;-57
2023/06/02 15:13:07;;;;;;;;;14.25;12.00;;;;;23.32;35.22;101249.94;4957791;28;45420;-55
2023/06/02 15:15:32;;;;;;;;;9.50;8.25;;;;;23.32;35.56;101244.66;4957821;28;45319;-56
2023/06/02 15:17:58;;;;;;;;;12.00;10.75;;;;;23.31;35.59;101235.88;4957529;28;47247;-56
2023/06/02 15:20:23;;;;;;;;;12.00;10.50;;;;;23.30;35.18;101236.81;4957295;28;45290;-55
2023/06/02 15:22:49;;;;;;;;;12.00;11.75;;;;;23.32;35.53;101231.41;4957349;28;45386;-56
2023/06/02 15:25:14;;;;;;;;;20.75;15.00;;;;;23.31;35.03;101230.59;4957509;28;45528;-56
2023/06/02 15:27:40;;;;;;;;;10.50;10.50;;;;;23.33;35.20;101234.94;4956079;28;45923;-56
2023/06/02 15:30:07;;;;;;;;;14.00;14.00;;;;;23.31;35.59;101233.22;4957122;28;45477;-56
2023/06/02 15:32:32;;;;;;;;;16.50;13.00;;;;;23.31;35.28;101224.47;4957246;28;45346;-56
2023/06/02 15:34:57;;;;;;;;;11.25;11.00;;;;;23.31;35.20;101240.31;4957457;28;45250;-56
2023/06/02 15:37:24;;;;;;;;;12.75;12.50;;;;;23.31;35.53;101227.09;4939562;28;47264;-57
2023/06/02 15:39:50;;;;;;;;;13.00;12.00;;;;;23.32;35.66;101231.41;4954558;28;45371;-56
2023/06/02 15:42:15;;;;;;;;;11.00;10.00;;;;;23.32;35.45;101218.19;4957097;28;45274;-56
2023/06/02 15:44:40;;;;;;;;;13.25;12.00;;;;;23.30;35.73;101217.47;4957423;28;50132;-56
2023/06/02 15:47:06;;;;;;;;;13.00;13.00;;;;;23.34;35.27;101228.69;4956879;28;47287;-54
2023/06/02 15:49:32;;;;;;;;;18.00;12.50;;;;;23.34;35.47;101226.06;4956988;28;45429;-50
2023/06/02 15:51:58;;;;;;;;;13.25;11.50;;;;;23.33;35.38;101222.53;4957285;28;45479;-55
2023/06/02 15:54:24;;;;;;;;;13.50;11.25;;;;;23.35;35.37;101222.47;4958048;28;45345;-53
2023/06/02 15:56:52;;;;;;;;;13.75;10.75;;;;;23.34;35.61;101232.19;4956968;28;45575;-55
2023/06/02 15:59:19;;;;;;;;;18.00;15.00;;;;;23.35;35.23;101230.41;4957415;28;45275;-57
2023/06/02 16:01:44;;;;;;;;;13.25;11.25;;;;;23.33;35.26;101221.72;4957785;28;45331;-53
2023/06/02 16:04:10;;;;;;;;;18.25;13.75;;;;;23.31;35.26;101211.25;4958278;28;45187;-56
2023/06/02 16:06:36;;;;;;;;;15.33;12.67;;;;;23.32;35.62;101220.84;4956821;28;60988;-55
2023/06/02 16:09:02;;;;;;;;;12.25;12.25;;;;;23.31;35.32;101216.53;4957353;28;45924;-56
2023/06/02 16:11:27;;;;;;;;;13.25;13.00;;;;;23.30;35.65;101214.81;4957474;28;45450;-56
2023/06/02 16:13:52;;;;;;;;;14.25;11.00;;;;;23.30;35.38;101213.00;4957655;28;45287;-55
2023/06/02 16:16:18;;;;;;;;;13.50;12.75;;;;;23.32;35.65;101210.25;4957268;28;46257;-57
2023/06/02 16:18:43;;;;;;;;;15.50;13.75;;;;;23.29;35.35;101210.47;4957550;28;47543;-55
2023/06/02 16:21:08;;;;;;;;;15.75;14.00;;;;;23.31;35.38;101205.94;4957606;28;45417;-57
2023/06/02 16:23:34;;;;;;;;;16.00;13.00;;;;;23.30;35.36;101201.59;4956424;28;48432;-56
2023/06/02 16:25:59;;;;;;;;;10.50;9.00;;;;;23.29;35.57;101195.44;4956361;28;46112;-56
2023/06/02 16:28:25;;;;;;;;;15.75;13.25;;;;;23.29;35.45;101206.03;4956250;28;48457;-57
2023/06/02 16:30:52;;;;;;;;;14.25;13.00;;;;;23.30;35.68;101204.25;4955840;28;45521;-56
2023/06/02 16:33:17;;;;;;;;;11.50;10.25;;;;;23.29;34.84;101198.09;4952865;28;45433;-57
2023/06/02 16:35:43;;;;;;;;;15.33;12.67;;;;;23.28;35.13;101192.91;4956082;28;64525;-57
2023/06/02 16:38:10;;;;;;;;;18.75;14.00;;;;;23.27;35.14;101184.09;4939247;28;45390;-57
2023/06/02 16:40:35;;;;;;;;;14.75;9.75;;;;;23.29;35.14;101194.59;4956789;28;45333;-56
2023/06/02 16:43:00;;;;;;;;;12.75;11.50;;;;;23.27;35.23;101189.38;4957317;28;45339;-56
2023/06/02 16:45:26;;;;;;;;;11.00;11.00;;;;;23.27;34.89;101197.31;4956814;28;46565;-56
2023/06/02 16:47:51;;;;;;;;;11.75;11.00;;;;;23.25;35.46;101188.66;4956709;28;45460;-55
2023/06/02 16:50:17;;;;;;;;;12.25;10.00;;;;;23.26;35.49;101184.22;4956919;28;45302;-56
2023/06/02 16:52:42;;;;;;;;;14.00;14.00;;;;;23.26;34.91;101192.97;4957154;28;45417;-54
2023/06/02 16:55:09;;;;;;;;;12.50;11.75;;;;;23.25;35.29;101187.78;4956059;28;57772;-53
2023/06/02 16:57:34;;;;;;;;;12.50;10.25;;;;;23.27;35.14;101191.19;4956579;28;45893;-56
2023/06/02 17:00:00;;;;;;;;;10.50;9.00;;;;;23.24;35.10;101179.03;4956819;28;45490;-56
2023/06/02 17:02:25;;;;;;;;;14.00;13.00;;;;;23.27;35.15;101191.19;4939475;28;45578;-55
2023/06/02 17:04:51;;;;;;;;;14.50;11.00;;;;;23.27;35.15;101191.19;4956259;28;46603;-56
2023/06/02 17:07:16;;;;;;;;;10.33;9.33;;;;;23.26;35.42;101190.34;4938948;28;56697;-56
2023/06/02 17:09:41;;;;;;;;;15.00;13.75;;;;;23.27;34.71;101185.91;4958165;28;45316;-54
2023/06/02 17:12:07;;;;;;;;;14.67;12.00;;;;;23.26;35.09;101195.63;4958944;28;47851;-55
2023/06/02 17:14:32;;;;;;;;;17.50;12.50;;;;;23.25;35.06;101198.38;4959012;28;46417;-55
2023/06/02 17:16:58;;;;;;;;;14.75;12.50;;;;;23.25;34.88;101190.44;4958957;28;45905;-57
2023/06/02 17:19:23;;;;;;;;;13.00;12.33;;;;;23.24;35.16;101188.72;4959030;28;53902;-56
2023/06/02 17:21:49;;;;;;;;;11.00;9.75;;;;;23.24;34.84;101192.25;4959439;28;45487;-57
2023/06/02 17:24:14;;;;;;;;;12.25;12.25;;;;;23.24;35.19;101186.09;4941616;28;45376;-56
2023/06/02 17:26:43;;;;;;;;;13.25;12.75;;;;;23.24;35.08;101207.25;4958978;28;45456;-56
2023/06/02 17:29:08;;;;;;;;;14.75;12.50;;;;;23.23;34.79;101210.84;4941751;28;45638;-56
2023/06/02 17:31:34;;;;;;;;;13.25;11.00;;;;;23.22;35.01;101196.78;4942427;28;45259;-56
2023/06/02 17:33:59;;;;;;;;;15.50;13.00;;;;;23.22;35.30;101199.41;4959353;28;45975;-56
2023/06/02 17:36:25;;;;;;;;;13.00;11.75;;;;;23.23;34.84;101202.91;4959024;28;47624;-56
2023/06/02 17:38:50;;;;;;;;;14.75;11.50;;;;;23.21;34.80;101212.72;4959392;28;45342;-57
2023/06/02 17:41:18;;;;;;;;;10.50;9.00;;;;;23.21;35.05;101207.41;4959989;28;45393;-56
2023/06/02 17:43:45;;;;;;;;;12.00;12.00;;;;;23.22;35.23;101215.28;4959275;28;46585;-56
2023/06/02 17:46:10;;;;;;;;;12.75;10.25;;;;;23.20;34.89;101205.75;4959351;28;45282;-56
2023/06/02 17:48:35;;;;;;;;;14.25;10.50;;;;;23.20;34.91;101211.88;4959297;28;45362;-56
2023/06/02 17:51:02;;;;;;;;;10.75;10.75;;;;;23.20;34.91;101205.75;4959469;28;45382;-56
2023/06/02 17:53:27;;;;;;;;;14.25;12.00;;;;;23.19;34.88;101204.00;4941547;28;46262;-56
2023/06/02 17:55:53;;;;;;;;;11.50;10.75;;;;;23.19;34.98;101206.66;4959148;28;45430;-57
2023/06/02 17:58:18;;;;;;;;;13.25;12.25;;;;;23.17;35.04;101207.59;4959536;28;45424;-56
2023/06/02 18:00:43;;;;;;;;;11.50;10.25;;;;;23.17;35.31;101207.59;4958807;28;46961;-56
2023/06/02 18:03:09;;;;;;;;;10.00;10.00;;;;;23.16;35.24;101205.91;4958895;28;46560;-56
2023/06/02 18:05:36;;;;;;;;;13.50;10.50;;;;;23.16;35.21;101208.53;4958482;28;45508;-57
2023/06/02 18:08:02;;;;;;;;;13.25;11.00;;;;;23.16;35.03;101211.19;4959133;28;45323;-57
2023/06/02 18:10:27;;;;;;;;;13.25;12.25;;;;;23.16;34.88;101205.91;4959226;28;45351;-56
2023/06/02 18:12:57;;;;;;;;;14.75;11.75;;;;;23.15;34.77;101217.41;4958546;28;51598;-57
2023/06/02 18:15:23;;;;;;;;;11.00;9.75;;;;;23.15;34.86;101219.22;4941514;28;46105;-56
2023/06/02 18:17:48;;;;;;;;;11.75;9.50;;;;;23.15;34.93;101217.41;4959182;28;45377;-56
2023/06/02 18:20:14;;;;;;;;;14.00;11.75;;;;;23.15;35.10;101214.78;4958289;28;45258;-57
2023/06/02 18:22:39;;;;;;;;;13.00;13.00;;;;;23.15;34.80;101213.94;4958685;28;46562;-57
2023/06/02 18:25:05;;;;;;;;;12.25;11.25;;;;;23.13;35.25;101227.22;4958791;28;45441;-57
2023/06/02 18:27:30;;;;;;;;;12.50;9.75;;;;;23.14;34.62;101236.03;4958831;28;45394;-57
2023/06/02 18:29:56;;;;;;;;;10.75;9.75;;;;;23.13;34.85;101229.03;4958796;28;45402;-57
2023/06/02 18:32:21;;;;;;;;;12.00;11.25;;;;;23.12;34.87;101233.47;4958756;28;45772;-57
2023/06/02 18:34:47;;;;;;;;;11.00;9.50;;;;;23.12;34.68;101236.09;4958317;28;45371;-57
2023/06/02 18:37:12;;;;;;;;;16.25;9.75;;;;;23.12;34.70;101236.09;4958478;28;45352;-57
2023/06/02 18:39:37;;;;;;;;;14.50;11.25;;;;;23.12;34.98;101236.09;4958876;28;45222;-56
2023/06/02 18:42:03;;;;;;;;;12.75;10.50;;;;;23.10;34.84;101237.97;4958171;28;55829;-57
2023/06/02 18:44:29;;;;;;;;;13.25;12.50;;;;;23.10;35.11;101237.97;4958333;28;45247;-56
2023/06/02 18:46:55;;;;;;;;;14.75;12.00;;;;;23.10;35.08;101240.63;4939832;28;47123;-62
2023/06/02 18:49:20;;;;;;;;;14.00;10.50;;;;;23.10;34.72;101242.44;4958389;28;45235;-65
2023/06/02 18:51:45;;;;;;;;;15.75;12.50;;;;;23.08;34.66;101242.53;4957600;28;46096;-60
2023/06/02 18:54:11;;;;;;;;;12.25;9.00;;;;;23.09;35.12;101238.94;4957928;28;45447;-64
2023/06/02 18:56:36;;;;;;;;;9.75;8.25;;;;;23.10;34.85;101243.28;4957976;28;45500;-64
2023/06/02 18:59:02;;;;;;;;;12.75;12.00;;;;;23.10;34.75;101258.28;4957752;28;45631;-60
2023/06/02 19:01:27;;;;;;;;;11.25;10.00;;;;;23.07;34.88;101238.19;4957538;28;46226;-55
2023/06/02 19:03:56;;;;;;;;;13.75;11.50;;;;;23.09;34.46;101246.88;4955928;28;45337;-55
2023/06/02 19:06:22;;;;;;;;;12.00;8.50;;;;;23.09;34.63;101246.00;4938907;28;45406;-55
2023/06/02 19:08:48;;;;;;;;;11.00;11.00;;;;;23.08;34.94;101239.88;4957548;28;45636;-62
2023/06/02 19:11:14;;;;;;;;;15.25;12.25;;;;;23.09;34.90;101246.88;4956963;28;46156;-59
2023/06/02 19:13:40;;;;;;;;;10.00;9.00;;;;;23.09;34.76;101246.88;4957201;28;45335;-63
2023/06/02 19:16:06;;;;;;;;;9.50;9.50;;;;;23.08;35.15;101253.09;4957030;28;45390;-61
2023/06/02 19:18:31;;;;;;;;;8.75;8.75;;;;;23.08;34.65;101250.47;4957255;28;45362;-61
2023/06/02 19:20:57;;;;;;;;;12.00;8.00;;;;;23.08;35.04;101250.47;4956713;28;57904;-63
2023/06/02 19:23:23;;;;;;;;;10.50;9.25;;;;;23.06;34.65;101240.91;4957358;28;45834;-58
2023/06/02 19:25:48;;;;;;;;;11.00;9.00;;;;;23.05;35.25;101240.06;4957433;28;45508;-58
2023/06/02 19:28:14;;;;;;;;;9.25;9.25;;;;;23.06;34.65;101240.91;4957340;28;45540;-57
2023/06/02 19:30:39;;;;;;;;;12.00;9.00;;;;;23.05;34.62;101241.84;4956939;28;46511;-56
2023/06/02 19:33:04;;;;;;;;;10.75;9.00;;;;;23.03;34.92;101244.59;4955723;28;45310;-61
2023/06/02 19:35:30;;;;;;;;;10.25;8.75;;;;;23.04;34.76;101235.72;4956850;28;45438;-61
2023/06/02 19:37:56;;;;;;;;;11.50;10.25;;;;;23.02;34.96;101240.25;4957613;28;45429;-55
2023/06/02 19:40:21;;;;;;;;;9.00;9.00;;;;;23.03;34.96;101241.94;4957099;28;46012;-63
2023/06/02 19:42:46;;;;;;;;;13.00;11.00;;;;;23.02;34.86;101237.59;4957128;28;46139;-62
2023/06/02 19:45:11;;;;;;;;;10.00;9.00;;;;;23.01;35.21;101239.41;4956066;28;59239;-63
2023/06/02 19:47:37;;;;;;;;;12.25;9.25;;;;;23.02;35.00;101245.53;4939575;28;45322;-62
2023/06/02 19:50:03;;;;;;;;;8.25;8.00;;;;;23.02;35.26;101245.53;4939038;28;46758;-62
2023/06/02 19:52:29;;;;;;;;;8.00;8.00;;;;;23.00;35.10;101258.84;4957002;28;45207;-62
2023/06/02 19:54:54;;;;;;;;;9.75;9.00;;;;;23.01;34.83;101260.56;4957347;28;45275;-62
2023/06/02 19:57:20;;;;;;;;;12.50;9.50;;;;;23.01;34.95;101259.69;4939734;28;45366;-61
2023/06/02 19:59:45;;;;;;;;;9.00;8.00;;;;;22.99;34.99;101264.19;4956532;28;46554;-60
2023/06/02 20:02:11;;;;;;;;;11.25;9.00;;;;;23.00;34.96;101263.25;4955906;28;45510;-57
2023/06/02 20:04:36;;;;;;;;;11.00;10.00;;;;;23.00;35.20;101263.25;4956210;28;45496;-58
2023/06/02 20:07:03;;;;;;;;;8.75;8.75;;;;;22.99;34.69;101277.41;4955623;28;45628;-59
2023/06/02 20:09:29;;;;;;;;;9.00;6.50;;;;;23.01;34.80;101275.53;4956283;28;46532;-54
2023/06/02 20:11:56;;;;;;;;;10.75;7.75;;;;;23.00;34.49;101273.84;4957037;28;45495;-63
2023/06/02 20:14:22;;;;;;;;;12.25;9.50;;;;;23.00;34.99;101280.00;4956696;28;45346;-52
2023/06/02 20:16:47;;;;;;;;;9.50;9.25;;;;;22.99;35.02;101282.72;4956728;28;45529;-55
2023/06/02 20:19:12;;;;;;;;;10.00;8.75;;;;;22.99;34.88;101290.63;4956023;28;45343;-52
2023/06/02 20:21:38;;;;;;;;;8.75;8.75;;;;;22.99;35.17;101288.00;4956568;28;45450;-56
2023/06/02 20:24:04;;;;;;;;;11.00;8.75;;;;;22.97;34.94;101290.75;4956732;28;45410;-47
2023/06/02 20:26:31;;;;;;;;;10.75;9.00;;;;;22.98;34.64;101294.25;4956681;28;45565;-55
2023/06/02 20:28:56;;;;;;;;;10.25;9.25;;;;;22.98;34.90;101294.25;4956406;28;46988;-50
2023/06/02 20:31:21;;;;;;;;;11.50;9.50;;;;;22.97;34.96;101303.97;4956312;28;45367;-57
2023/06/02 20:33:47;;;;;;;;;12.00;10.50;;;;;22.96;34.93;101293.47;4956349;28;45456;-54
2023/06/02 20:36:12;;;;;;;;;9.75;9.25;;;;;22.96;34.77;101296.13;4956288;28;45336;-63
2023/06/02 20:38:42;;;;;;;;;10.75;9.50;;;;;22.95;34.54;101294.41;4956234;28;46544;-62
2023/06/02 20:41:07;;;;;;;;;14.00;11.75;;;;;22.94;35.04;101303.28;4955688;28;45273;-58
2023/06/02 20:43:33;;;;;;;;;8.00;8.00;;;;;22.94;34.63;101295.34;4955898;28;45385;-57
2023/06/02 20:45:58;;;;;;;;;9.00;9.00;;;;;22.94;34.64;101300.66;4956212;28;45366;-55
2023/06/02 20:48:23;;;;;;;;;6.50;3.50;;;;;22.94;34.66;101301.47;4955872;28;47897;-58
2023/06/02 20:50:49;;;;;;;;;9.25;9.25;;;;;22.93;34.89;101306.88;4956103;28;45374;-50
2023/06/02 20:53:16;;;;;;;;;13.25;9.75;;;;;22.92;34.84;101302.53;4956226;28;45861;-63
2023/06/02 20:55:43;;;;;;;;;8.50;8.50;;;;;22.92;34.60;101305.16;4956973;28;45611;-61
2023/06/02 20:58:09;;;;;;;;;9.75;9.00;;;;;22.92;34.65;101307.81;4956536;28;45414;-63
2023/06/02 21:00:34;;;;;;;;;8.25;8.25;;;;;22.94;35.02;101313.88;4955694;28;45437;-61
2023/06/02 21:02:59;;;;;;;;;9.50;8.25;;;;;22.94;34.80;101319.16;4956729;28;45339;-61
2023/06/02 21:05:25;;;;;;;;;9.00;9.00;;;;;22.97;34.84;101311.06;4940056;28;45414;-59
2023/06/02 21:07:50;;;;;;;;;9.50;9.50;;;;;23.00;34.62;101311.72;4957078;28;45431;-58
2023/06/02 21:10:15;;;;;;;;;12.00;10.00;;;;;23.04;34.43;101316.84;4956543;28;63500;-57
2023/06/02 21:12:41;;;;;;;;;8.00;8.00;;;;;23.03;34.81;101321.25;4957040;28;45790;-61
2023/06/02 21:15:07;;;;;;;;;11.00;8.50;;;;;23.07;34.60;101327.22;4956939;28;45472;-66
2023/06/02 21:17:32;;;;;;;;;9.50;8.75;;;;;23.09;34.90;101325.31;4955974;28;45412;-60
2023/06/02 21:19:58;;;;;;;;;14.75;11.25;;;;;23.11;34.63;101334.88;4956137;28;46062;-65
2023/06/02 21:22:23;;;;;;;;;10.25;8.75;;;;;23.12;34.72;101327.81;4939834;28;45305;-65
2023/06/02 21:24:49;;;;;;;;;11.00;8.00;;;;;23.12;34.89;101335.72;4957342;28;46038;-64
2023/06/02 21:27:15;;;;;;;;;11.00;9.25;;;;;23.11;34.56;101332.22;4956753;28;48277;-54
2023/06/02 21:29:42;;;;;;;;;9.75;8.00;;;;;23.08;34.87;101335.06;4939452;28;46029;-49
2023/06/02 21:32:07;;;;;;;;;9.00;9.00;;;;;23.10;34.76;101327.03;4956772;28;45504;-62
2023/06/02 21:34:33;;;;;;;;;10.25;8.50;;;;;23.08;34.84;101324.50;4957102;28;45432;-63
2023/06/02 21:36:59;;;;;;;;;7.75;7.75;;;;;23.07;34.85;101330.72;4957053;28;46727;-65
2023/06/02 21:39:24;;;;;;;;;10.75;9.00;;;;;23.08;34.73;101331.56;4956815;28;45434;-65
2023/06/02 21:41:49;;;;;;;;;8.75;8.00;;;;;23.07;34.71;101332.50;4956787;28;45369;-64
2023/06/02 21:44:15;;;;;;;;;9.00;9.00;;;;;23.06;35.06;101330.78;4956815;28;45363;-64
2023/06/02 21:46:40;;;;;;;;;9.50;8.00;;;;;23.06;35.20;101333.44;4956187;28;45407;-65
2023/06/02 21:49:05;;;;;;;;;8.00;8.00;;;;;23.05;34.66;101335.25;4956908;28;45266;-63
2023/06/02 21:51:31;;;;;;;;;10.75;7.75;;;;;23.05;35.07;101334.38;4956791;28;45892;-48
2023/06/02 21:53:57;;;;;;;;;6.50;6.50;;;;;23.04;34.82;101328.25;4957242;28;45299;-65
2023/06/02 21:56:22;;;;;;;;;12.25;10.00;;;;;23.03;34.89;101326.53;4958298;28;45306;-65
2023/06/02 21:58:47;;;;;;;;;9.75;9.25;;;;;23.03;34.56;101321.25;4959916;28;45222;-61
2023/06/02 22:01:13;;;;;;;;;10.75;9.00;;;;;23.03;34.93;101317.78;4959412;28;48419;-65
2023/06/02 22:03:38;;;;;;;;;1.00;1.00;;;;;23.03;34.64;101323.06;4960253;28;45156;-62
2023/06/02 22:06:03;;;;;;;;;6.67;6.67;;;;;23.02;34.77;101319.53;4958948;28;63475;-63
2023/06/02 22:08:29;;;;;;;;;9.75;9.00;;;;;23.02;35.08;101316.91;4959917;28;45224;-64
2023/06/02 22:10:54;;;;;;;;;9.75;7.50;;;;;23.01;34.95;101318.72;4959847;28;45260;-64
2023/06/02 22:13:19;;;;;;;;;12.25;9.00;;;;;23.03;35.01;101317.78;4959946;28;45563;-65
2023/06/02 22:15:45;;;;;;;;;12.00;8.75;;;;;23.01;34.88;101321.34;4959419;28;45196;-57
2023/06/02 22:18:10;;;;;;;;;10.50;8.00;;;;;23.00;35.31;101324.06;4959593;28;45356;-63
2023/06/02 22:20:35;;;;;;;;;10.00;7.00;;;;;23.01;34.73;101323.13;4959258;28;56720;-66
2023/06/02 22:23:01;;;;;;;;;9.67;7.67;;;;;22.99;35.09;101323.22;4959637;28;49420;-66
2023/06/02 22:25:26;;;;;;;;;7.00;7.00;;;;;23.01;34.60;101323.13;4958889;28;65122;-61
2023/06/02 22:27:51;;;;;;;;;11.25;6.50;;;;;22.99;34.56;101317.06;4959366;28;45404;-64
2023/06/02 22:30:17;;;;;;;;;9.00;7.00;;;;;23.00;35.08;101311.72;4959381;28;45325;-63
2023/06/02 22:32:43;;;;;;;;;11.50;9.75;;;;;23.00;34.74;101324.06;4959381;28;45602;-64
2023/06/02 22:35:08;;;;;;;;;14.00;11.00;;;;;22.99;34.80;101315.31;4959357;28;45586;-64
2023/06/02 22:37:34;;;;;;;;;10.50;9.00;;;;;22.99;34.61;101317.06;4959435;28;45463;-56
2023/06/02 22:39:59;;;;;;;;;8.75;7.25;;;;;22.98;34.82;101312.75;4959742;28;45363;-64
2023/06/02 22:42:25;;;;;;;;;8.50;6.25;;;;;22.97;35.03;101317.16;4959422;28;45592;-65
2023/06/02 22:44:51;;;;;;;;;10.00;8.25;;;;;22.97;34.85;101316.34;4958946;28;45356;-63
2023/06/02 22:47:16;;;;;;;;;9.50;9.25;;;;;22.96;34.83;101312.00;4959317;28;45472;-62
2023/06/02 22:49:41;;;;;;;;;8.25;6.50;;;;;22.96;34.82;101312.81;4959389;28;45525;-54
2023/06/02 22:52:07;;;;;;;;;6.00;6.00;;;;;22.96;35.04;101301.41;4959331;28;45310;-56
2023/06/02 22:54:32;;;;;;;;;8.25;7.50;;;;;22.95;35.00;101302.34;4959238;28;47225;-54
2023/06/02 22:56:57;;;;;;;;;9.25;8.00;;;;;22.96;34.70;101301.41;4958998;28;45312;-60
2023/06/02 22:59:23;;;;;;;;;7.67;7.67;;;;;22.97;35.00;101308.41;4958457;28;57022;-60
2023/06/02 23:01:48;;;;;;;;;11.25;7.00;;;;;22.94;34.66;101292.72;4958875;28;45307;-55
2023/06/02 23:04:13;;;;;;;;;6.50;6.50;;;;;22.95;34.64;101297.06;4958895;28;46225;-54
2023/06/02 23:06:39;;;;;;;;;9.25;7.00;;;;;22.95;35.10;101284.69;4958293;28;45250;-67
2023/06/02 23:09:05;;;;;;;;;9.25;8.25;;;;;22.94;35.03;101288.28;4959129;28;45330;-65
2023/06/02 23:11:30;;;;;;;;;8.25;5.00;;;;;22.93;35.11;101278.63;4959039;28;45240;-62
2023/06/02 23:13:55;;;;;;;;;6.25;6.00;;;;;22.94;34.79;101284.78;4958599;28;46552;-62
2023/06/02 23:16:21;;;;;;;;;6.50;6.50;;;;;22.95;35.11;101283.84;4958488;28;45352;-63
2023/06/02 23:18:46;;;;;;;;;6.00;4.50;;;;;22.92;34.81;101270.81;4958862;28;45384;-65
2023/06/02 23:21:11;;;;;;;;;9.25;7.25;;;;;22.94;34.73;101268.94;4941408;28;45229;-54
2023/06/02 23:23:37;;;;;;;;;11.00;7.50;;;;;22.91;35.10;101275.25;4958676;28;46307;-50
2023/06/02 23:26:02;;;;;;;;;9.00;7.75;;;;;22.93;34.72;101276.00;4958655;28;45418;-63
2023/06/02 23:28:27;;;;;;;;;7.00;7.00;;;;;22.93;34.86;101275.16;4958308;28;45354;-65
2023/06/02 23:30:53;;;;;;;;;7.00;4.50;;;;;22.92;35.19;101269.03;4958516;28;45323;-65
2023/06/02 23:33:18;;;;;;;;;8.25;6.75;;;;;22.91;35.09;101267.31;4958299;28;46300;-64
2023/06/02 23:35:43;;;;;;;;;8.00;7.00;;;;;22.91;34.84;101274.38;4957843;28;62568;-66
2023/06/02 23:38:09;;;;;;;;;6.00;6.00;;;;;22.92;35.42;101276.09;4958335;28;45418;-65
2023/06/02 23:40:34;;;;;;;;;8.00;7.75;;;;;22.91;34.99;101274.38;4958831;28;45726;-65
2023/06/02 23:43:04;;;;;;;;;8.00;7.00;;;;;22.91;35.03;101274.38;4958145;28;46139;-65
2023/06/02 23:45:30;;;;;;;;;8.50;8.50;;;;;22.91;34.99;101274.38;4957939;28;45894;-63
2023/06/02 23:47:55;;;;;;;;;7.50;7.25;;;;;22.91;35.49;101271.75;4958175;28;45421;-58
2023/06/02 23:50:20;;;;;;;;;7.00;6.00;;;;;22.90;35.00;101281.47;4958439;28;45239;-52
2023/06/02 23:52:46;;;;;;;;;10.00;6.75;;;;;22.90;35.13;101272.69;4939976;28;46100;-47
2023/06/02 23:55:11;;;;;;;;;8.00;6.75;;;;;22.89;34.99;101270.97;4958217;28;45341;-47
2023/06/02 23:57:36;;;;;;;;;9.25;7.00;;;;;22.88;35.20;101274.56;4958368;28;45315;-44
